createdAt,value
2022-08-28T00:00:14.949Z,8.90
2022-08-28T00:02:42.432Z,21.53
2022-08-28T00:05:11.235Z,8.70
2022-08-28T00:07:38.218Z,13.00
2022-08-28T00:10:06.789Z,10.80
2022-08-28T00:12:34.870Z,9.00
2022-08-28T00:15:02.719Z,8.83
2022-08-28T00:17:29.489Z,7.77
2022-08-28T00:19:56.238Z,9.47
2022-08-28T00:22:23.356Z,7.30
2022-08-28T00:24:49.994Z,9.80
2022-08-28T00:27:35.177Z,27.33
2022-08-28T00:30:01.904Z,6.00
2022-08-28T00:32:28.717Z,10.37
2022-08-28T00:34:55.449Z,10.37
2022-08-28T00:37:24.555Z,18.07
2022-08-28T00:39:51.658Z,8.17
2022-08-28T00:42:18.570Z,9.20
2022-08-28T00:44:45.509Z,8.40
2022-08-28T00:47:13.229Z,9.87
2022-08-28T00:49:50.796Z,12.30
2022-08-28T00:52:18.959Z,12.23
2022-08-28T00:54:59.416Z,8.97
2022-08-28T00:57:35.255Z,7.30
2022-08-28T01:00:02.728Z,10.50
2022-08-28T01:02:29.702Z,15.70
2022-08-28T01:04:56.535Z,16.53
2022-08-28T01:07:23.954Z,12.13
2022-08-28T01:09:54.185Z,13.00
2022-08-28T01:12:25.460Z,17.00
2022-08-28T01:14:53.659Z,17.93
2022-08-28T01:17:21.681Z,16.17
2022-08-28T01:19:57.193Z,12.30
2022-08-28T01:22:30.973Z,10.33
2022-08-28T01:24:59.533Z,10.70
2022-08-28T01:27:26.665Z,6.50
2022-08-28T01:29:53.600Z,4.90
2022-08-28T01:32:37.849Z,9.63
2022-08-28T01:35:07.217Z,8.43
2022-08-28T01:37:33.949Z,8.60
2022-08-28T01:40:01.454Z,9.13
2022-08-28T01:42:28.528Z,5.37
2022-08-28T01:44:55.356Z,7.07
2022-08-28T01:47:22.819Z,8.23
2022-08-28T01:49:49.839Z,10.70
2022-08-28T01:52:16.640Z,8.13
2022-08-28T01:54:43.336Z,7.33
2022-08-28T01:57:10.537Z,7.17
2022-08-28T01:59:37.254Z,7.23
2022-08-28T02:02:04.730Z,6.90
2022-08-28T02:04:31.803Z,10.90
2022-08-28T02:06:59.495Z,15.77
2022-08-28T02:09:26.125Z,12.13
2022-08-28T02:11:54.440Z,13.47
2022-08-28T02:14:22.526Z,11.40
2022-08-28T02:16:49.990Z,18.20
2022-08-28T02:19:17.221Z,13.83
2022-08-28T02:21:44.011Z,18.53
2022-08-28T02:24:10.830Z,21.10
2022-08-28T02:26:38.241Z,12.47
2022-08-28T02:29:05.469Z,18.23
2022-08-28T02:31:32.289Z,8.80
2022-08-28T02:33:59.089Z,5.43
2022-08-28T02:36:26.190Z,5.60
2022-08-28T02:38:57.413Z,10.07
2022-08-28T02:41:24.715Z,10.13
2022-08-28T02:43:51.388Z,6.03
2022-08-28T02:46:18.181Z,6.67
2022-08-28T02:48:45.666Z,7.63
2022-08-28T02:51:13.769Z,9.00
2022-08-28T02:53:41.992Z,14.03
2022-08-28T02:56:09.599Z,16.30
2022-08-28T02:58:36.621Z,12.97
2022-08-28T03:01:09.760Z,15.70
2022-08-28T03:03:37.164Z,10.17
2022-08-28T03:06:08.324Z,9.97
2022-08-28T03:08:35.294Z,6.73
2022-08-28T03:11:02.014Z,11.70
2022-08-28T03:13:28.852Z,7.10
2022-08-28T03:15:56.240Z,6.00
2022-08-28T03:18:24.528Z,4.80
2022-08-28T03:20:52.794Z,7.57
2022-08-28T03:23:28.906Z,7.73
2022-08-28T03:25:58.418Z,6.40
2022-08-28T03:28:26.839Z,6.37
2022-08-28T03:30:54.302Z,7.10
2022-08-28T03:33:21.740Z,8.90
2022-08-28T03:35:48.891Z,6.90
2022-08-28T03:38:17.049Z,7.40
2022-08-28T03:40:46.440Z,9.77
2022-08-28T03:43:23.500Z,13.93
2022-08-28T03:46:03.332Z,13.90
2022-08-28T03:48:33.180Z,18.90
2022-08-28T03:51:00.761Z,13.07
2022-08-28T03:53:29.426Z,10.00
2022-08-28T03:55:56.921Z,10.93
2022-08-28T03:58:24.193Z,6.90
2022-08-28T04:00:51.242Z,7.73
2022-08-28T04:03:18.617Z,11.53
2022-08-28T04:05:46.271Z,6.87
2022-08-28T04:08:16.105Z,9.60
2022-08-28T04:10:44.241Z,5.63
2022-08-28T04:13:12.479Z,5.10
2022-08-28T04:15:39.689Z,5.67
2022-08-28T04:18:06.433Z,4.67
2022-08-28T04:20:33.264Z,18.50
2022-08-28T04:23:01.339Z,6.30
2022-08-28T04:25:27.959Z,9.63
2022-08-28T04:27:54.633Z,9.03
2022-08-28T04:30:21.349Z,16.07
2022-08-28T04:32:48.013Z,9.07
2022-08-28T04:35:15.580Z,8.77
2022-08-28T04:37:43.810Z,8.37
2022-08-28T04:40:11.497Z,10.50
2022-08-28T04:42:38.992Z,9.37
2022-08-28T04:45:07.130Z,15.23
2022-08-28T04:47:38.503Z,16.67
2022-08-28T04:50:06.506Z,22.73
2022-08-28T04:52:33.148Z,19.70
2022-08-28T04:54:59.858Z,18.53
2022-08-28T04:57:26.534Z,21.30
2022-08-28T04:59:53.261Z,8.50
2022-08-28T05:02:20.025Z,11.53
2022-08-28T05:04:47.372Z,10.60
2022-08-28T05:07:14.340Z,5.83
2022-08-28T05:09:41.019Z,8.20
2022-08-28T05:12:07.641Z,8.00
2022-08-28T05:14:34.357Z,10.00
2022-08-28T05:17:01.000Z,7.50
2022-08-28T05:19:28.262Z,6.13
2022-08-28T05:21:55.231Z,7.43
2022-08-28T05:24:22.655Z,8.87
2022-08-28T05:26:49.348Z,6.50
2022-08-28T05:29:16.987Z,5.70
2022-08-28T05:31:44.427Z,7.07
2022-08-28T05:34:13.617Z,7.40
2022-08-28T05:36:40.310Z,6.10
2022-08-28T05:39:09.165Z,7.33
2022-08-28T05:41:36.819Z,8.63
2022-08-28T05:44:05.829Z,7.50
2022-08-28T05:46:33.388Z,6.07
2022-08-28T05:49:00.600Z,6.07
2022-08-28T05:51:28.233Z,6.83
2022-08-28T05:53:57.557Z,8.10
2022-08-28T05:56:29.737Z,6.63
2022-08-28T05:58:57.667Z,6.43
2022-08-28T06:01:29.605Z,6.47
2022-08-28T06:03:59.321Z,8.97
2022-08-28T06:06:27.965Z,7.40
2022-08-28T06:09:04.178Z,9.73
2022-08-28T06:11:32.823Z,8.77
2022-08-28T06:14:03.189Z,6.13
2022-08-28T06:16:32.027Z,6.70
2022-08-28T06:18:59.178Z,15.27
2022-08-28T06:21:26.184Z,12.37
2022-08-28T06:23:53.116Z,15.90
2022-08-28T06:26:19.961Z,19.67
2022-08-28T06:28:46.592Z,14.60
2022-08-28T06:31:24.676Z,15.37
2022-08-28T06:33:57.867Z,20.03
2022-08-28T06:36:27.653Z,16.57
2022-08-28T06:38:58.133Z,24.13
2022-08-28T06:41:25.377Z,18.10
2022-08-28T06:43:52.018Z,17.63
2022-08-28T06:46:18.859Z,16.30
2022-08-28T06:48:45.512Z,23.63
2022-08-28T06:51:13.019Z,17.93
2022-08-28T06:53:41.612Z,22.50
2022-08-28T06:56:26.389Z,17.27
2022-08-28T06:58:55.828Z,18.43
2022-08-28T07:01:33.942Z,12.80
2022-08-28T07:04:05.062Z,9.07
2022-08-28T07:06:34.431Z,8.33
2022-08-28T07:09:01.900Z,8.10
2022-08-28T07:11:31.456Z,14.90
2022-08-28T07:13:59.223Z,25.13
2022-08-28T07:16:31.868Z,13.90
2022-08-28T07:18:59.674Z,25.67
2022-08-28T07:21:27.094Z,11.23
2022-08-28T07:23:55.004Z,10.90
2022-08-28T07:26:24.007Z,12.70
2022-08-28T07:28:51.543Z,12.47
2022-08-28T07:31:26.136Z,13.10
2022-08-28T07:33:54.862Z,16.27
2022-08-28T07:36:29.873Z,8.70
2022-08-28T07:38:58.262Z,7.30
2022-08-28T07:41:27.858Z,9.73
2022-08-28T07:44:13.525Z,6.77
2022-08-28T07:46:40.907Z,7.17
2022-08-28T07:49:08.918Z,10.50
2022-08-28T07:51:36.038Z,15.00
2022-08-28T07:54:04.069Z,9.00
2022-08-28T07:56:31.457Z,11.53
2022-08-28T07:58:59.625Z,16.07
2022-08-28T08:01:28.788Z,15.50
2022-08-28T08:04:01.279Z,10.47
2022-08-28T08:06:34.022Z,8.10
2022-08-28T08:09:05.153Z,8.37
2022-08-28T08:11:32.770Z,8.67
2022-08-28T08:14:04.656Z,9.80
2022-08-28T08:16:35.677Z,8.30
2022-08-28T08:19:04.151Z,6.90
2022-08-28T08:21:31.715Z,10.30
2022-08-28T08:23:59.254Z,8.03
2022-08-28T08:26:28.277Z,10.73
2022-08-28T08:28:56.267Z,15.30
2022-08-28T08:31:26.874Z,9.67
2022-08-28T08:33:56.493Z,7.87
2022-08-28T08:36:25.536Z,6.50
2022-08-28T08:38:59.254Z,6.87
2022-08-28T08:41:33.423Z,6.83
2022-08-28T08:44:33.548Z,7.60
2022-08-28T08:47:22.462Z,6.27
2022-08-28T08:49:57.570Z,5.37
2022-08-28T08:52:30.296Z,4.33
2022-08-28T08:55:06.408Z,8.93
2022-08-28T08:57:35.420Z,6.13
2022-08-28T09:00:12.303Z,8.43
2022-08-28T09:02:49.473Z,9.47
2022-08-28T09:05:20.269Z,5.43
2022-08-28T09:07:58.409Z,4.93
2022-08-28T09:10:35.821Z,5.40
2022-08-28T09:13:17.621Z,5.93
2022-08-28T09:15:50.620Z,4.47
2022-08-28T09:18:26.019Z,4.20
2022-08-28T09:20:58.349Z,5.37
2022-08-28T09:23:27.225Z,10.27
2022-08-28T09:26:02.107Z,4.90
2022-08-28T09:28:37.650Z,5.80
2022-08-28T09:31:19.069Z,4.10
2022-08-28T09:33:52.042Z,7.40
2022-08-28T09:36:23.561Z,6.47
2022-08-28T09:39:14.730Z,8.63
2022-08-28T09:42:26.177Z,6.60
2022-08-28T09:45:16.400Z,5.33
2022-08-28T09:47:54.614Z,4.70
2022-08-28T09:50:37.479Z,3.97
2022-08-28T09:53:10.223Z,3.50
2022-08-28T09:55:41.788Z,2.50
2022-08-28T09:58:09.114Z,2.60
2022-08-28T10:00:39.088Z,3.00
2022-08-28T10:03:16.248Z,2.90
2022-08-28T10:06:09.187Z,2.13
2022-08-28T10:08:55.012Z,1.83
2022-08-28T10:11:34.718Z,2.70
2022-08-28T10:14:08.699Z,2.47
2022-08-28T10:16:51.508Z,3.53
2022-08-28T10:20:02.830Z,1.30
2022-08-28T10:22:42.590Z,1.53
2022-08-28T10:25:09.600Z,1.93
2022-08-28T10:27:56.729Z,1.60
2022-08-28T10:30:25.011Z,1.63
2022-08-28T10:33:10.309Z,1.10
2022-08-28T10:35:53.332Z,1.97
2022-08-28T10:38:27.849Z,2.10
2022-08-28T10:41:11.154Z,5.20
2022-08-28T10:43:43.688Z,2.60
2022-08-28T10:46:27.154Z,1.50
2022-08-28T10:48:58.490Z,0.80
2022-08-28T10:51:35.220Z,1.33
2022-08-28T10:54:13.720Z,1.47
2022-08-28T10:56:44.539Z,5.30
2022-08-28T10:59:12.206Z,1.27
2022-08-28T11:01:42.801Z,1.00
2022-08-28T11:04:25.416Z,2.93
2022-08-28T11:06:58.575Z,3.00
2022-08-28T11:09:37.750Z,2.07
2022-08-28T11:12:10.246Z,1.60
2022-08-28T11:14:47.718Z,2.70
2022-08-28T11:17:30.615Z,1.93
2022-08-28T11:20:14.016Z,1.40
2022-08-28T11:22:43.721Z,5.90
2022-08-28T11:25:12.940Z,4.70
2022-08-28T11:27:40.616Z,1.77
2022-08-28T11:30:11.157Z,2.47
2022-08-28T11:32:56.588Z,1.70
2022-08-28T11:35:49.116Z,1.77
2022-08-28T11:38:41.507Z,2.60
2022-08-28T11:41:25.857Z,1.73
2022-08-28T11:44:41.632Z,2.30
2022-08-28T11:47:44.908Z,1.30
2022-08-28T11:50:32.168Z,1.47
2022-08-28T11:53:14.223Z,1.50
2022-08-28T11:56:00.030Z,1.17
2022-08-28T11:58:35.781Z,1.47
2022-08-28T12:01:07.548Z,1.10
2022-08-28T12:03:38.300Z,1.20
2022-08-28T12:06:06.320Z,1.03
2022-08-28T12:08:46.104Z,0.93
2022-08-28T12:11:40.785Z,0.80
2022-08-28T12:14:11.316Z,1.00
2022-08-28T12:17:00.085Z,1.37
2022-08-28T12:19:28.912Z,4.00
2022-08-28T12:21:56.431Z,0.97
2022-08-28T12:24:24.274Z,1.60
2022-08-28T12:26:54.674Z,1.00
2022-08-28T12:29:32.947Z,2.20
2022-08-28T12:32:31.167Z,2.00
2022-08-28T12:34:58.037Z,2.87
2022-08-28T12:37:50.869Z,0.73
2022-08-28T12:40:25.661Z,3.17
2022-08-28T12:42:56.139Z,1.00
2022-08-28T12:45:35.045Z,0.57
2022-08-28T12:48:15.576Z,2.97
2022-08-28T12:50:42.263Z,0.80
2022-08-28T12:53:16.432Z,1.90
2022-08-28T12:55:45.558Z,0.90
2022-08-28T12:58:34.036Z,1.20
2022-08-28T13:01:14.301Z,2.00
2022-08-28T13:03:49.977Z,2.10
2022-08-28T13:06:36.779Z,3.90
2022-08-28T13:09:07.382Z,1.80
2022-08-28T13:11:38.831Z,0.70
2022-08-28T13:14:06.038Z,1.10
2022-08-28T13:16:42.658Z,1.80
2022-08-28T13:19:29.129Z,1.13
2022-08-28T13:22:32.232Z,5.30
2022-08-28T13:25:00.928Z,0.93
2022-08-28T13:27:28.307Z,0.60
2022-08-28T13:30:26.106Z,4.07
2022-08-28T13:33:23.695Z,3.30
2022-08-28T13:35:51.565Z,1.23
2022-08-28T13:38:20.768Z,0.97
2022-08-28T13:40:58.081Z,1.20
2022-08-28T13:43:28.191Z,6.23
2022-08-28T13:45:55.199Z,0.80
2022-08-28T13:48:26.515Z,0.90
2022-08-28T13:51:04.835Z,2.30
2022-08-28T13:53:31.970Z,1.57
2022-08-28T13:56:00.318Z,2.30
2022-08-28T13:58:28.332Z,3.20
2022-08-28T14:00:55.401Z,1.33
2022-08-28T14:03:41.317Z,0.67
2022-08-28T14:06:16.981Z,4.50
2022-08-28T14:08:44.923Z,4.57
2022-08-28T14:11:13.231Z,12.73
2022-08-28T14:13:46.711Z,1.00
2022-08-28T14:16:23.323Z,0.70
2022-08-28T14:18:52.765Z,0.90
2022-08-28T14:21:20.003Z,1.03
2022-08-28T14:23:46.709Z,2.00
2022-08-28T14:26:13.459Z,0.80
2022-08-28T14:28:40.121Z,2.37
2022-08-28T14:31:11.045Z,3.80
2022-08-28T14:33:41.717Z,2.50
2022-08-28T14:36:18.699Z,9.00
2022-08-28T14:38:45.448Z,3.27
2022-08-28T14:41:12.549Z,3.50
2022-08-28T14:43:39.409Z,4.47
2022-08-28T14:46:09.680Z,4.00
2022-08-28T14:48:38.291Z,5.27
2022-08-28T14:51:05.170Z,5.63
2022-08-28T14:53:31.919Z,3.17
2022-08-28T14:55:58.559Z,3.70
2022-08-28T14:58:25.619Z,16.87
2022-08-28T15:00:52.998Z,1.23
2022-08-28T15:03:20.477Z,1.13
2022-08-28T15:05:47.813Z,1.73
2022-08-28T15:08:16.354Z,1.47
2022-08-28T15:10:44.149Z,5.77
2022-08-28T15:13:11.588Z,1.23
2022-08-28T15:15:39.657Z,0.60
2022-08-28T15:18:07.262Z,1.13
2022-08-28T15:20:45.021Z,0.93
2022-08-28T15:23:13.456Z,1.80
2022-08-28T15:25:40.571Z,1.20
2022-08-28T15:28:07.451Z,1.90
2022-08-28T15:30:34.619Z,2.30
2022-08-28T15:33:01.730Z,3.93
2022-08-28T15:35:28.648Z,4.73
2022-08-28T15:37:55.437Z,0.70
2022-08-28T15:40:40.782Z,1.70
2022-08-28T15:43:07.692Z,1.37
2022-08-28T15:45:39.319Z,2.10
2022-08-28T15:48:06.439Z,2.33
2022-08-28T15:50:33.224Z,3.10
2022-08-28T15:53:00.030Z,1.90
2022-08-28T15:55:27.450Z,4.17
2022-08-28T15:57:55.208Z,4.80
2022-08-28T16:00:22.097Z,3.93
2022-08-28T16:02:49.019Z,7.60
2022-08-28T16:05:16.052Z,2.93
2022-08-28T16:07:42.829Z,4.97
2022-08-28T16:10:10.170Z,1.67
2022-08-28T16:12:40.249Z,1.80
2022-08-28T16:15:08.399Z,1.83
2022-08-28T16:17:35.140Z,6.60
2022-08-28T16:20:03.651Z,2.30
2022-08-28T16:22:30.377Z,4.03
2022-08-28T16:24:57.499Z,4.17
2022-08-28T16:27:24.228Z,2.17
2022-08-28T16:29:52.786Z,3.30
2022-08-28T16:32:20.009Z,4.60
2022-08-28T16:34:46.825Z,0.83
2022-08-28T16:37:14.359Z,3.93
2022-08-28T16:39:46.363Z,1.40
2022-08-28T16:42:13.004Z,1.63
2022-08-28T16:44:39.949Z,1.40
2022-08-28T16:47:07.063Z,3.20
2022-08-28T16:49:33.869Z,1.37
2022-08-28T16:52:00.595Z,2.63
2022-08-28T16:54:27.296Z,1.60
2022-08-28T16:56:54.040Z,1.07
2022-08-28T16:59:21.152Z,1.17
2022-08-28T17:01:52.818Z,2.13
2022-08-28T17:04:20.629Z,3.67
2022-08-28T17:06:47.549Z,1.30
2022-08-28T17:09:14.460Z,1.80
2022-08-28T17:11:41.162Z,3.70
2022-08-28T17:14:09.200Z,1.93
2022-08-28T17:16:35.925Z,1.40
2022-08-28T17:19:02.774Z,3.77
2022-08-28T17:21:48.296Z,3.00
2022-08-28T17:24:15.101Z,2.17
2022-08-28T17:26:42.680Z,1.77
2022-08-28T17:29:09.753Z,2.53
2022-08-28T17:31:36.934Z,1.30
2022-08-28T17:34:05.747Z,0.90
2022-08-28T17:36:34.344Z,4.43
2022-08-28T17:39:03.733Z,1.60
2022-08-28T17:41:30.467Z,3.57
2022-08-28T17:43:57.287Z,3.70
2022-08-28T17:46:24.095Z,2.70
2022-08-28T17:48:56.193Z,1.10
2022-08-28T17:51:41.902Z,2.77
2022-08-28T17:54:18.529Z,1.00
2022-08-28T17:56:46.517Z,2.70
2022-08-28T17:59:14.044Z,2.33
2022-08-28T18:01:44.607Z,4.60
2022-08-28T18:04:12.318Z,2.57
2022-08-28T18:06:39.561Z,6.50
2022-08-28T18:09:08.210Z,2.10
2022-08-28T18:11:34.986Z,2.53
2022-08-28T18:14:02.409Z,3.37
2022-08-28T18:16:32.138Z,1.80
2022-08-28T18:19:00.354Z,2.10
2022-08-28T18:21:27.488Z,1.77
2022-08-28T18:23:54.247Z,5.83
2022-08-28T18:26:21.119Z,3.70
2022-08-28T18:28:48.011Z,3.60
2022-08-28T18:31:15.195Z,2.70
2022-08-28T18:33:41.907Z,3.17
2022-08-28T18:36:10.562Z,1.60
2022-08-28T18:38:37.378Z,2.07
2022-08-28T18:41:05.680Z,1.50
2022-08-28T18:43:33.384Z,3.27
2022-08-28T18:46:01.978Z,2.60
2022-08-28T18:48:29.035Z,7.30
2022-08-28T18:50:55.865Z,1.60
2022-08-28T18:53:23.624Z,6.20
2022-08-28T18:55:52.765Z,2.17
2022-08-28T18:58:21.176Z,1.60
2022-08-28T19:00:48.574Z,2.03
2022-08-28T19:03:15.759Z,12.10
2022-08-28T19:05:42.507Z,4.70
2022-08-28T19:08:09.419Z,1.90
2022-08-28T19:10:37.977Z,3.20
2022-08-28T19:13:06.519Z,8.80
2022-08-28T19:15:34.733Z,3.00
2022-08-28T19:18:02.088Z,4.10
2022-08-28T19:20:29.888Z,1.80
2022-08-28T19:22:58.010Z,3.50
2022-08-28T19:25:28.295Z,9.43
2022-08-28T19:28:00.194Z,7.00
2022-08-28T19:30:31.413Z,4.50
2022-08-28T19:32:58.423Z,1.73
2022-08-28T19:35:25.928Z,1.53
2022-08-28T19:37:53.797Z,1.27
2022-08-28T19:40:21.038Z,2.27
2022-08-28T19:42:50.051Z,1.50
2022-08-28T19:45:18.045Z,5.00
2022-08-28T19:47:45.698Z,3.10
2022-08-28T19:50:14.760Z,3.17
2022-08-28T19:52:43.633Z,5.40
2022-08-28T19:55:23.693Z,4.50
2022-08-28T19:57:50.631Z,2.53
2022-08-28T20:00:19.262Z,8.73
2022-08-28T20:02:48.287Z,4.47
2022-08-28T20:05:15.533Z,1.80
2022-08-28T20:07:42.497Z,1.57
2022-08-28T20:10:10.442Z,4.27
2022-08-28T20:12:38.689Z,1.73
2022-08-28T20:15:09.314Z,2.20
2022-08-28T20:17:43.944Z,1.90
2022-08-28T20:20:17.959Z,9.97
2022-08-28T20:22:44.746Z,10.43
2022-08-28T20:25:11.901Z,2.10
2022-08-28T20:27:41.477Z,2.00
2022-08-28T20:30:11.106Z,2.17
2022-08-28T20:32:40.373Z,4.67
2022-08-28T20:35:09.623Z,1.53
2022-08-28T20:37:44.731Z,4.77
2022-08-28T20:40:16.039Z,3.93
2022-08-28T20:42:42.987Z,3.47
2022-08-28T20:45:10.729Z,3.83
2022-08-28T20:47:37.429Z,5.43
2022-08-28T20:50:05.107Z,3.17
2022-08-28T20:52:31.758Z,2.10
2022-08-28T20:54:58.514Z,2.00
2022-08-28T20:57:25.691Z,1.67
2022-08-28T20:59:54.136Z,1.10
2022-08-28T21:02:24.280Z,4.10
2022-08-28T21:04:52.035Z,6.53
2022-08-28T21:07:20.538Z,1.77
2022-08-28T21:10:04.919Z,3.00
2022-08-28T21:12:35.721Z,11.23
2022-08-28T21:15:02.655Z,3.00
2022-08-28T21:17:30.712Z,2.37
2022-08-28T21:20:02.891Z,1.90
2022-08-28T21:22:31.554Z,3.80
2022-08-28T21:24:58.779Z,4.27
2022-08-28T21:27:25.405Z,4.03
2022-08-28T21:29:55.237Z,9.53
2022-08-28T21:32:21.856Z,7.53
2022-08-28T21:34:48.499Z,11.23
2022-08-28T21:37:15.623Z,5.50
2022-08-28T21:39:42.308Z,3.13
2022-08-28T21:42:10.392Z,5.40
2022-08-28T21:44:38.221Z,1.63
2022-08-28T21:47:05.211Z,1.40
2022-08-28T21:49:31.855Z,3.40
2022-08-28T21:52:01.299Z,6.53
2022-08-28T21:54:28.043Z,7.73
2022-08-28T21:56:58.744Z,2.23
2022-08-28T21:59:25.777Z,1.90
2022-08-28T22:01:58.381Z,1.53
2022-08-28T22:04:25.298Z,1.63
2022-08-28T22:06:51.987Z,2.30
2022-08-28T22:09:18.643Z,15.90
2022-08-28T22:11:45.267Z,2.20
2022-08-28T22:14:11.873Z,2.30
2022-08-28T22:16:38.571Z,5.33
2022-08-28T22:19:05.197Z,8.10
2022-08-28T22:21:50.273Z,4.83
2022-08-28T22:24:16.977Z,1.97
2022-08-28T22:26:43.927Z,3.73
2022-08-28T22:29:11.089Z,8.60
2022-08-28T22:31:39.666Z,4.27
2022-08-28T22:34:12.670Z,2.97
2022-08-28T22:36:39.938Z,2.37
2022-08-28T22:39:06.650Z,2.07
2022-08-28T22:41:33.338Z,3.50
2022-08-28T22:44:00.306Z,1.80
2022-08-28T22:46:27.918Z,5.23
2022-08-28T22:48:54.779Z,2.70
2022-08-28T22:51:21.484Z,3.10
2022-08-28T22:53:55.805Z,2.23
2022-08-28T22:56:22.467Z,2.83
2022-08-28T22:58:49.098Z,3.03
2022-08-28T23:01:18.700Z,4.07
2022-08-28T23:03:46.087Z,2.70
2022-08-28T23:06:13.857Z,2.20
2022-08-28T23:08:40.730Z,2.73
2022-08-28T23:11:07.442Z,4.00
2022-08-28T23:13:34.409Z,1.80
2022-08-28T23:16:01.619Z,4.90
2022-08-28T23:18:28.818Z,3.77
2022-08-28T23:20:56.086Z,2.10
2022-08-28T23:23:23.558Z,1.80
2022-08-28T23:25:50.669Z,3.60
2022-08-28T23:28:18.258Z,2.20
2022-08-28T23:30:48.529Z,2.10
2022-08-28T23:33:23.834Z,5.43
2022-08-28T23:35:51.045Z,2.80
2022-08-28T23:38:17.809Z,3.17
2022-08-28T23:40:44.686Z,1.40
2022-08-28T23:43:11.875Z,2.67
2022-08-28T23:45:40.144Z,3.80
2022-08-28T23:48:07.022Z,1.70
2022-08-28T23:50:33.968Z,2.20
2022-08-28T23:53:01.855Z,1.50
2022-08-28T23:55:29.070Z,3.27
2022-08-28T23:57:55.890Z,5.20
